sensor_id;sensor_type;location;lat;lon;timestamp;pressure;altitude;pressure_sealevel;temperature;humidity
68873;BME280;55907;50.806;12.882;2024-02-21T00:02:43;980.2;;;8.1;72.9
68873;BME280;55907;50.806;12.882;2024-02-21T00:05:44;980.1;;;8.0;73.2
68873;BME280;55907;50.806;12.882;2024-02-21T00:08:44;980.1;;;8.0;73.3
68873;BME280;55907;50.806;12.882;2024-02-21T00:11:45;980.0;;;8.0;73.4
68873;BME280;55907;50.806;12.882;2024-02-21T00:14:46;979.9;;;8.0;73.2
68873;BME280;55907;50.806;12.882;2024-02-21T00:17:47;980.0;;;8.0;73.2
68873;BME280;55907;50.806;12.882;2024-02-21T00:20:47;979.9;;;8.0;73.3
68873;BME280;55907;50.806;12.882;2024-02-21T00:23:48;980.0;;;8.0;73.4
68873;BME280;55907;50.806;12.882;2024-02-21T00:26:49;980.0;;;7.9;73.6
68873;BME280;55907;50.806;12.882;2024-02-21T00:29:50;979.9;;;8.0;73.6
68873;BME280;55907;50.806;12.882;2024-02-21T00:32:50;979.8;;;7.9;73.7
68873;BME280;55907;50.806;12.882;2024-02-21T00:35:51;979.8;;;7.9;74.1
68873;BME280;55907;50.806;12.882;2024-02-21T00:38:52;979.7;;;7.9;73.8
68873;BME280;55907;50.806;12.882;2024-02-21T00:41:53;979.7;;;8.0;73.8
68873;BME280;55907;50.806;12.882;2024-02-21T00:44:53;979.6;;;7.9;73.8
68873;BME280;55907;50.806;12.882;2024-02-21T00:47:54;979.7;;;8.0;73.7
68873;BME280;55907;50.806;12.882;2024-02-21T00:50:55;979.7;;;7.9;74.0
68873;BME280;55907;50.806;12.882;2024-02-21T00:53:56;979.6;;;7.9;73.9
68873;BME280;55907;50.806;12.882;2024-02-21T00:56:56;979.6;;;7.8;74.0
68873;BME280;55907;50.806;12.882;2024-02-21T00:59:57;979.5;;;7.8;74.2
68873;BME280;55907;50.806;12.882;2024-02-21T01:02:58;979.5;;;7.8;74.2
68873;BME280;55907;50.806;12.882;2024-02-21T01:05:59;979.5;;;7.7;74.7
68873;BME280;55907;50.806;12.882;2024-02-21T01:08:59;979.4;;;7.6;74.9
68873;BME280;55907;50.806;12.882;2024-02-21T01:12:00;979.4;;;7.7;74.9
68873;BME280;55907;50.806;12.882;2024-02-21T01:15:01;979.4;;;7.6;74.8
68873;BME280;55907;50.806;12.882;2024-02-21T01:18:02;979.3;;;7.6;75.8
68873;BME280;55907;50.806;12.882;2024-02-21T01:21:03;979.2;;;7.6;76.2
68873;BME280;55907;50.806;12.882;2024-02-21T01:24:03;979.2;;;7.6;75.7
68873;BME280;55907;50.806;12.882;2024-02-21T01:27:04;979.2;;;7.6;75.5
68873;BME280;55907;50.806;12.882;2024-02-21T01:30:05;979.2;;;7.7;76.3
68873;BME280;55907;50.806;12.882;2024-02-21T01:33:05;979.1;;;7.6;75.5
68873;BME280;55907;50.806;12.882;2024-02-21T01:36:06;979.1;;;7.8;75.4
68873;BME280;55907;50.806;12.882;2024-02-21T01:39:07;979.0;;;7.7;75.9
68873;BME280;55907;50.806;12.882;2024-02-21T01:42:07;979.0;;;7.7;75.3
68873;BME280;55907;50.806;12.882;2024-02-21T01:45:09;978.9;;;7.7;75.3
68873;BME280;55907;50.806;12.882;2024-02-21T01:48:09;978.9;;;7.7;75.8
68873;BME280;55907;50.806;12.882;2024-02-21T01:51:10;978.8;;;7.7;75.4
68873;BME280;55907;50.806;12.882;2024-02-21T01:54:12;978.8;;;7.7;75.5
68873;BME280;55907;50.806;12.882;2024-02-21T01:57:11;978.8;;;7.7;75.5
68873;BME280;55907;50.806;12.882;2024-02-21T02:00:13;978.8;;;7.7;75.5
68873;BME280;55907;50.806;12.882;2024-02-21T02:03:13;978.7;;;7.7;75.7
68873;BME280;55907;50.806;12.882;2024-02-21T02:06:14;978.7;;;7.8;75.4
68873;BME280;55907;50.806;12.882;2024-02-21T02:09:14;978.6;;;7.8;75.5
68873;BME280;55907;50.806;12.882;2024-02-21T02:12:15;978.6;;;7.8;75.3
68873;BME280;55907;50.806;12.882;2024-02-21T02:15:16;978.6;;;7.8;75.1
68873;BME280;55907;50.806;12.882;2024-02-21T02:18:18;978.6;;;7.8;75.4
68873;BME280;55907;50.806;12.882;2024-02-21T02:21:23;978.5;;;7.8;75.3
68873;BME280;55907;50.806;12.882;2024-02-21T02:24:19;978.5;;;7.7;75.4
68873;BME280;55907;50.806;12.882;2024-02-21T02:27:19;978.5;;;7.7;75.4
68873;BME280;55907;50.806;12.882;2024-02-21T02:30:19;978.6;;;7.7;75.4
68873;BME280;55907;50.806;12.882;2024-02-21T02:33:20;978.5;;;7.8;75.6
68873;BME280;55907;50.806;12.882;2024-02-21T02:36:21;978.4;;;7.7;75.1
68873;BME280;55907;50.806;12.882;2024-02-21T02:39:22;978.3;;;7.8;74.9
68873;BME280;55907;50.806;12.882;2024-02-21T02:42:22;978.3;;;7.8;74.8
68873;BME280;55907;50.806;12.882;2024-02-21T02:45:23;978.3;;;7.8;74.7
68873;BME280;55907;50.806;12.882;2024-02-21T02:48:24;978.3;;;7.8;74.8
68873;BME280;55907;50.806;12.882;2024-02-21T02:51:25;978.2;;;7.9;74.4
68873;BME280;55907;50.806;12.882;2024-02-21T02:54:25;978.2;;;7.8;74.4
68873;BME280;55907;50.806;12.882;2024-02-21T02:57:26;978.1;;;7.7;74.6
68873;BME280;55907;50.806;12.882;2024-02-21T03:00:27;978.1;;;7.8;74.8
68873;BME280;55907;50.806;12.882;2024-02-21T03:03:28;978.0;;;7.7;74.7
68873;BME280;55907;50.806;12.882;2024-02-21T03:06:28;978.1;;;7.7;75.0
68873;BME280;55907;50.806;12.882;2024-02-21T03:09:29;978.1;;;7.7;74.9
68873;BME280;55907;50.806;12.882;2024-02-21T03:12:30;978.1;;;7.7;75.2
68873;BME280;55907;50.806;12.882;2024-02-21T03:15:31;978.1;;;7.8;75.0
68873;BME280;55907;50.806;12.882;2024-02-21T03:18:31;978.1;;;7.8;75.1
68873;BME280;55907;50.806;12.882;2024-02-21T03:21:32;978.0;;;7.7;75.2
68873;BME280;55907;50.806;12.882;2024-02-21T03:24:33;978.0;;;7.7;75.2
68873;BME280;55907;50.806;12.882;2024-02-21T03:27:34;978.0;;;7.7;75.5
68873;BME280;55907;50.806;12.882;2024-02-21T03:33:35;978.0;;;7.7;75.8
68873;BME280;55907;50.806;12.882;2024-02-21T03:36:36;978.0;;;7.7;75.6
68873;BME280;55907;50.806;12.882;2024-02-21T03:39:37;978.0;;;7.7;75.5
68873;BME280;55907;50.806;12.882;2024-02-21T03:42:38;977.9;;;7.8;75.2
68873;BME280;55907;50.806;12.882;2024-02-21T03:45:38;977.9;;;7.8;75.2
68873;BME280;55907;50.806;12.882;2024-02-21T03:48:39;977.9;;;7.8;75.2
68873;BME280;55907;50.806;12.882;2024-02-21T03:51:40;977.9;;;7.8;75.3
68873;BME280;55907;50.806;12.882;2024-02-21T03:54:40;977.9;;;7.8;74.9
68873;BME280;55907;50.806;12.882;2024-02-21T04:00:42;977.9;;;7.9;75.0
68873;BME280;55907;50.806;12.882;2024-02-21T04:03:43;977.9;;;7.8;75.3
68873;BME280;55907;50.806;12.882;2024-02-21T04:06:46;977.9;;;7.8;75.0
68873;BME280;55907;50.806;12.882;2024-02-21T04:09:44;977.9;;;7.9;75.0
68873;BME280;55907;50.806;12.882;2024-02-21T04:12:45;978.0;;;7.9;75.0
68873;BME280;55907;50.806;12.882;2024-02-21T04:15:46;978.0;;;7.8;75.2
68873;BME280;55907;50.806;12.882;2024-02-21T04:18:46;978.0;;;7.7;75.7
68873;BME280;55907;50.806;12.882;2024-02-21T04:21:47;978.0;;;7.7;76.2
68873;BME280;55907;50.806;12.882;2024-02-21T04:24:48;977.9;;;7.8;76.7
68873;BME280;55907;50.806;12.882;2024-02-21T04:27:49;978.0;;;7.8;77.1
68873;BME280;55907;50.806;12.882;2024-02-21T04:30:50;977.9;;;7.8;77.6
68873;BME280;55907;50.806;12.882;2024-02-21T04:33:51;977.9;;;7.7;77.6
68873;BME280;55907;50.806;12.882;2024-02-21T04:36:51;977.8;;;7.7;78.2
68873;BME280;55907;50.806;12.882;2024-02-21T04:39:52;977.8;;;7.6;78.9
68873;BME280;55907;50.806;12.882;2024-02-21T04:42:54;977.9;;;7.6;79.6
68873;BME280;55907;50.806;12.882;2024-02-21T04:45:53;977.8;;;7.6;79.6
68873;BME280;55907;50.806;12.882;2024-02-21T04:48:54;977.8;;;7.6;79.9
68873;BME280;55907;50.806;12.882;2024-02-21T04:51:55;977.8;;;7.6;80.5
68873;BME280;55907;50.806;12.882;2024-02-21T04:54:55;977.7;;;7.5;80.7
68873;BME280;55907;50.806;12.882;2024-02-21T04:57:56;977.7;;;7.5;81.0
68873;BME280;55907;50.806;12.882;2024-02-21T05:00:57;977.6;;;7.4;81.3
68873;BME280;55907;50.806;12.882;2024-02-21T05:03:58;977.6;;;7.5;81.5
68873;BME280;55907;50.806;12.882;2024-02-21T05:06:59;977.5;;;7.5;81.7
68873;BME280;55907;50.806;12.882;2024-02-21T05:09:59;977.5;;;7.5;81.9
68873;BME280;55907;50.806;12.882;2024-02-21T05:13:00;977.6;;;7.5;82.1
68873;BME280;55907;50.806;12.882;2024-02-21T05:16:01;977.6;;;7.5;82.1
68873;BME280;55907;50.806;12.882;2024-02-21T05:19:01;977.6;;;7.4;82.5
68873;BME280;55907;50.806;12.882;2024-02-21T05:22:02;977.6;;;7.4;83.0
68873;BME280;55907;50.806;12.882;2024-02-21T05:25:03;977.6;;;7.4;83.4
68873;BME280;55907;50.806;12.882;2024-02-21T05:28:04;977.5;;;7.4;83.5
68873;BME280;55907;50.806;12.882;2024-02-21T05:31:04;977.5;;;7.5;83.5
68873;BME280;55907;50.806;12.882;2024-02-21T05:34:05;977.4;;;7.5;83.4
68873;BME280;55907;50.806;12.882;2024-02-21T05:37:06;977.4;;;7.4;83.6
68873;BME280;55907;50.806;12.882;2024-02-21T05:40:07;977.4;;;7.4;83.2
68873;BME280;55907;50.806;12.882;2024-02-21T05:43:08;977.4;;;7.4;83.0
68873;BME280;55907;50.806;12.882;2024-02-21T05:46:08;977.3;;;7.4;82.9
68873;BME280;55907;50.806;12.882;2024-02-21T05:49:09;977.2;;;7.4;82.6
68873;BME280;55907;50.806;12.882;2024-02-21T05:52:10;977.3;;;7.4;82.6
68873;BME280;55907;50.806;12.882;2024-02-21T05:55:10;977.2;;;7.5;82.2
68873;BME280;55907;50.806;12.882;2024-02-21T05:58:11;977.2;;;7.4;82.1
68873;BME280;55907;50.806;12.882;2024-02-21T06:01:12;977.2;;;7.3;82.5
68873;BME280;55907;50.806;12.882;2024-02-21T06:04:13;977.2;;;7.4;82.2
68873;BME280;55907;50.806;12.882;2024-02-21T06:07:13;977.1;;;7.4;81.8
68873;BME280;55907;50.806;12.882;2024-02-21T06:10:14;977.2;;;7.4;81.7
68873;BME280;55907;50.806;12.882;2024-02-21T06:13:15;977.1;;;7.3;81.7
68873;BME280;55907;50.806;12.882;2024-02-21T06:16:16;977.1;;;7.4;81.6
68873;BME280;55907;50.806;12.882;2024-02-21T06:19:16;977.0;;;7.4;81.3
68873;BME280;55907;50.806;12.882;2024-02-21T06:22:17;977.1;;;7.4;81.0
68873;BME280;55907;50.806;12.882;2024-02-21T06:25:18;977.0;;;7.3;81.2
68873;BME280;55907;50.806;12.882;2024-02-21T06:28:19;977.0;;;7.3;80.8
68873;BME280;55907;50.806;12.882;2024-02-21T06:31:19;977.0;;;7.3;80.7
68873;BME280;55907;50.806;12.882;2024-02-21T06:34:20;976.8;;;7.2;80.8
68873;BME280;55907;50.806;12.882;2024-02-21T06:37:21;976.7;;;7.4;80.3
68873;BME280;55907;50.806;12.882;2024-02-21T06:40:22;976.7;;;7.3;80.2
68873;BME280;55907;50.806;12.882;2024-02-21T06:43:22;976.7;;;7.3;80.3
68873;BME280;55907;50.806;12.882;2024-02-21T06:46:24;976.7;;;7.4;80.1
68873;BME280;55907;50.806;12.882;2024-02-21T06:49:24;976.7;;;7.5;79.7
68873;BME280;55907;50.806;12.882;2024-02-21T06:52:25;976.7;;;7.4;79.7
68873;BME280;55907;50.806;12.882;2024-02-21T06:55:25;976.8;;;7.5;79.5
68873;BME280;55907;50.806;12.882;2024-02-21T06:58:26;976.9;;;7.6;79.2
68873;BME280;55907;50.806;12.882;2024-02-21T07:01:27;976.8;;;7.5;79.1
68873;BME280;55907;50.806;12.882;2024-02-21T07:04:28;976.9;;;7.6;78.9
68873;BME280;55907;50.806;12.882;2024-02-21T07:07:28;976.9;;;7.7;78.6
68873;BME280;55907;50.806;12.882;2024-02-21T07:10:29;976.9;;;7.8;78.4
68873;BME280;55907;50.806;12.882;2024-02-21T07:13:30;976.9;;;7.8;78.2
68873;BME280;55907;50.806;12.882;2024-02-21T07:16:31;976.9;;;7.9;77.8
68873;BME280;55907;50.806;12.882;2024-02-21T07:19:32;976.9;;;8.0;77.5
68873;BME280;55907;50.806;12.882;2024-02-21T07:22:32;977.0;;;8.0;77.4
68873;BME280;55907;50.806;12.882;2024-02-21T07:25:33;977.0;;;8.1;77.0
68873;BME280;55907;50.806;12.882;2024-02-21T07:28:34;977.1;;;8.3;76.6
68873;BME280;55907;50.806;12.882;2024-02-21T07:31:38;977.0;;;8.3;76.4
68873;BME280;55907;50.806;12.882;2024-02-21T07:34:35;977.1;;;8.5;76.2
68873;BME280;55907;50.806;12.882;2024-02-21T07:37:36;977.1;;;8.6;75.9
68873;BME280;55907;50.806;12.882;2024-02-21T07:40:37;977.2;;;8.8;75.3
68873;BME280;55907;50.806;12.882;2024-02-21T07:43:38;977.1;;;8.9;74.8
68873;BME280;55907;50.806;12.882;2024-02-21T07:46:38;977.1;;;8.9;74.1
68873;BME280;55907;50.806;12.882;2024-02-21T07:49:41;977.0;;;9.0;74.0
68873;BME280;55907;50.806;12.882;2024-02-21T07:52:40;977.0;;;8.9;74.3
68873;BME280;55907;50.806;12.882;2024-02-21T07:55:41;977.0;;;8.8;74.7
68873;BME280;55907;50.806;12.882;2024-02-21T07:58:42;977.0;;;8.8;74.5
68873;BME280;55907;50.806;12.882;2024-02-21T08:01:42;977.1;;;8.8;74.8
68873;BME280;55907;50.806;12.882;2024-02-21T08:04:43;977.2;;;8.8;74.8
68873;BME280;55907;50.806;12.882;2024-02-21T08:07:44;977.1;;;8.9;74.8
68873;BME280;55907;50.806;12.882;2024-02-21T08:10:44;977.3;;;8.7;74.9
68873;BME280;55907;50.806;12.882;2024-02-21T08:13:45;977.2;;;8.7;74.9
68873;BME280;55907;50.806;12.882;2024-02-21T08:16:46;977.2;;;8.6;75.4
68873;BME280;55907;50.806;12.882;2024-02-21T08:19:47;977.1;;;8.6;75.3
68873;BME280;55907;50.806;12.882;2024-02-21T08:22:47;976.9;;;8.6;75.2
68873;BME280;55907;50.806;12.882;2024-02-21T08:25:48;976.8;;;8.5;75.0
68873;BME280;55907;50.806;12.882;2024-02-21T08:28:49;976.8;;;8.6;74.5
68873;BME280;55907;50.806;12.882;2024-02-21T08:31:50;976.7;;;9.0;73.2
68873;BME280;55907;50.806;12.882;2024-02-21T08:34:50;976.6;;;9.8;69.6
68873;BME280;55907;50.806;12.882;2024-02-21T08:37:51;976.5;;;10.2;67.6
68873;BME280;55907;50.806;12.882;2024-02-21T08:40:52;976.6;;;10.6;66.7
68873;BME280;55907;50.806;12.882;2024-02-21T08:43:53;976.5;;;11.0;65.0
68873;BME280;55907;50.806;12.882;2024-02-21T08:46:53;976.5;;;11.3;63.6
68873;BME280;55907;50.806;12.882;2024-02-21T08:49:54;976.5;;;11.7;62.2
68873;BME280;55907;50.806;12.882;2024-02-21T08:52:55;976.5;;;12.3;59.9
68873;BME280;55907;50.806;12.882;2024-02-21T08:55:56;976.5;;;13.0;58.0
68873;BME280;55907;50.806;12.882;2024-02-21T08:58:56;976.5;;;14.0;55.6
68873;BME280;55907;50.806;12.882;2024-02-21T09:01:57;976.6;;;14.4;52.9
68873;BME280;55907;50.806;12.882;2024-02-21T09:04:58;976.5;;;14.1;52.6
68873;BME280;55907;50.806;12.882;2024-02-21T09:07:58;976.6;;;13.7;53.5
68873;BME280;55907;50.806;12.882;2024-02-21T09:10:59;976.7;;;13.5;54.7
68873;BME280;55907;50.806;12.882;2024-02-21T09:14:00;976.7;;;13.0;54.7
68873;BME280;55907;50.806;12.882;2024-02-21T09:17:00;976.7;;;12.5;56.5
68873;BME280;55907;50.806;12.882;2024-02-21T09:20:02;976.7;;;12.0;58.3
68873;BME280;55907;50.806;12.882;2024-02-21T09:23:02;976.6;;;11.4;58.7
68873;BME280;55907;50.806;12.882;2024-02-21T09:26:03;976.7;;;11.2;59.7
68873;BME280;55907;50.806;12.882;2024-02-21T09:29:03;976.6;;;10.9;61.3
68873;BME280;55907;50.806;12.882;2024-02-21T09:32:04;976.5;;;10.7;61.7
68873;BME280;55907;50.806;12.882;2024-02-21T09:35:05;976.4;;;10.7;61.9
68873;BME280;55907;50.806;12.882;2024-02-21T09:38:05;976.4;;;10.6;62.7
68873;BME280;55907;50.806;12.882;2024-02-21T09:41:11;976.5;;;10.4;63.2
68873;BME280;55907;50.806;12.882;2024-02-21T09:44:09;976.5;;;10.4;63.6
68873;BME280;55907;50.806;12.882;2024-02-21T09:47:10;976.5;;;10.4;63.3
68873;BME280;55907;50.806;12.882;2024-02-21T09:50:08;976.5;;;10.4;63.5
68873;BME280;55907;50.806;12.882;2024-02-21T09:53:11;976.6;;;10.4;63.8
68873;BME280;55907;50.806;12.882;2024-02-21T09:56:10;976.7;;;10.5;63.6
68873;BME280;55907;50.806;12.882;2024-02-21T09:59:11;976.7;;;10.5;63.7
68873;BME280;55907;50.806;12.882;2024-02-21T10:02:11;976.6;;;10.5;64.3
68873;BME280;55907;50.806;12.882;2024-02-21T10:05:12;976.5;;;10.6;64.0
68873;BME280;55907;50.806;12.882;2024-02-21T10:08:13;976.5;;;10.8;63.7
68873;BME280;55907;50.806;12.882;2024-02-21T10:11:22;976.6;;;10.9;63.8
68873;BME280;55907;50.806;12.882;2024-02-21T10:14:15;976.6;;;11.2;62.8
68873;BME280;55907;50.806;12.882;2024-02-21T10:17:16;976.6;;;11.4;62.1
68873;BME280;55907;50.806;12.882;2024-02-21T10:20:16;976.6;;;11.6;60.5
68873;BME280;55907;50.806;12.882;2024-02-21T10:23:16;976.5;;;11.8;60.1
68873;BME280;55907;50.806;12.882;2024-02-21T10:26:19;976.5;;;12.0;59.9
68873;BME280;55907;50.806;12.882;2024-02-21T10:29:18;976.5;;;12.1;58.9
68873;BME280;55907;50.806;12.882;2024-02-21T10:32:18;976.4;;;13.3;55.9
68873;BME280;55907;50.806;12.882;2024-02-21T10:35:27;976.3;;;14.8;53.9
68873;BME280;55907;50.806;12.882;2024-02-21T10:38:20;976.2;;;15.7;51.4
68873;BME280;55907;50.806;12.882;2024-02-21T10:41:21;976.3;;;15.7;48.9
68873;BME280;55907;50.806;12.882;2024-02-21T10:44:22;976.2;;;15.9;48.5
68873;BME280;55907;50.806;12.882;2024-02-21T10:47:23;976.2;;;15.5;48.8
68873;BME280;55907;50.806;12.882;2024-02-21T10:50:25;976.2;;;15.8;48.6
68873;BME280;55907;50.806;12.882;2024-02-21T10:53:29;976.1;;;16.1;47.2
68873;BME280;55907;50.806;12.882;2024-02-21T10:56:28;976.0;;;16.4;47.6
68873;BME280;55907;50.806;12.882;2024-02-21T10:59:25;976.1;;;16.9;46.8
68873;BME280;55907;50.806;12.882;2024-02-21T11:02:26;975.9;;;16.6;45.0
68873;BME280;55907;50.806;12.882;2024-02-21T11:05:26;975.9;;;16.9;45.7
68873;BME280;55907;50.806;12.882;2024-02-21T11:08:27;975.9;;;17.5;43.8
68873;BME280;55907;50.806;12.882;2024-02-21T11:11:28;975.8;;;18.4;43.3
68873;BME280;55907;50.806;12.882;2024-02-21T11:14:28;975.8;;;18.7;41.4
68873;BME280;55907;50.806;12.882;2024-02-21T11:17:29;975.7;;;18.7;41.3
68873;BME280;55907;50.806;12.882;2024-02-21T11:20:33;975.7;;;19.0;40.8
68873;BME280;55907;50.806;12.882;2024-02-21T11:23:31;975.6;;;18.8;39.6
68873;BME280;55907;50.806;12.882;2024-02-21T11:26:32;975.6;;;18.5;38.6
68873;BME280;55907;50.806;12.882;2024-02-21T11:29:32;975.6;;;18.2;39.6
68873;BME280;55907;50.806;12.882;2024-02-21T11:32:32;975.5;;;18.0;39.0
68873;BME280;55907;50.806;12.882;2024-02-21T11:35:33;975.4;;;18.0;39.7
68873;BME280;55907;50.806;12.882;2024-02-21T11:38:34;975.3;;;18.0;39.9
68873;BME280;55907;50.806;12.882;2024-02-21T11:41:34;975.2;;;18.0;38.9
68873;BME280;55907;50.806;12.882;2024-02-21T11:44:36;975.1;;;17.6;39.6
68873;BME280;55907;50.806;12.882;2024-02-21T11:47:36;975.1;;;17.3;40.0
68873;BME280;55907;50.806;12.882;2024-02-21T11:50:36;975.0;;;17.1;40.7
68873;BME280;55907;50.806;12.882;2024-02-21T11:53:37;975.0;;;17.0;41.5
68873;BME280;55907;50.806;12.882;2024-02-21T11:56:38;974.9;;;17.2;40.7
68873;BME280;55907;50.806;12.882;2024-02-21T11:59:39;974.8;;;16.7;41.4
68873;BME280;55907;50.806;12.882;2024-02-21T12:02:39;974.8;;;16.7;41.3
68873;BME280;55907;50.806;12.882;2024-02-21T12:05:40;974.7;;;16.2;42.1
68873;BME280;55907;50.806;12.882;2024-02-21T12:08:41;974.6;;;16.3;43.4
68873;BME280;55907;50.806;12.882;2024-02-21T12:11:41;974.6;;;16.0;43.4
68873;BME280;55907;50.806;12.882;2024-02-21T12:14:42;974.5;;;15.7;44.1
68873;BME280;55907;50.806;12.882;2024-02-21T12:17:43;974.4;;;15.7;44.0
68873;BME280;55907;50.806;12.882;2024-02-21T12:20:43;974.4;;;15.6;43.1
68873;BME280;55907;50.806;12.882;2024-02-21T12:23:44;974.3;;;15.7;43.1
68873;BME280;55907;50.806;12.882;2024-02-21T12:26:44;974.3;;;15.8;43.0
68873;BME280;55907;50.806;12.882;2024-02-21T12:29:45;974.2;;;15.5;41.5
68873;BME280;55907;50.806;12.882;2024-02-21T12:32:46;974.2;;;15.2;42.6
68873;BME280;55907;50.806;12.882;2024-02-21T12:35:46;974.1;;;15.1;42.8
68873;BME280;55907;50.806;12.882;2024-02-21T12:38:47;974.1;;;14.6;43.6
68873;BME280;55907;50.806;12.882;2024-02-21T12:41:48;974.0;;;14.6;43.8
68873;BME280;55907;50.806;12.882;2024-02-21T12:44:48;973.9;;;14.0;44.4
68873;BME280;55907;50.806;12.882;2024-02-21T12:47:49;973.9;;;14.0;44.5
68873;BME280;55907;50.806;12.882;2024-02-21T12:50:50;973.8;;;14.0;44.6
68873;BME280;55907;50.806;12.882;2024-02-21T12:53:51;973.9;;;14.1;45.1
68873;BME280;55907;50.806;12.882;2024-02-21T12:56:51;973.9;;;14.1;45.4
68873;BME280;55907;50.806;12.882;2024-02-21T12:59:52;973.7;;;14.2;45.1
68873;BME280;55907;50.806;12.882;2024-02-21T13:02:53;973.7;;;14.4;45.3
68873;BME280;55907;50.806;12.882;2024-02-21T13:05:53;973.6;;;14.2;44.6
68873;BME280;55907;50.806;12.882;2024-02-21T13:08:54;973.5;;;14.4;44.7
68873;BME280;55907;50.806;12.882;2024-02-21T13:11:55;973.4;;;14.5;44.6
68873;BME280;55907;50.806;12.882;2024-02-21T13:14:55;973.4;;;14.6;44.7
68873;BME280;55907;50.806;12.882;2024-02-21T13:17:57;973.4;;;14.9;45.7
68873;BME280;55907;50.806;12.882;2024-02-21T13:20:57;973.3;;;14.8;43.6
68873;BME280;55907;50.806;12.882;2024-02-21T13:23:58;973.3;;;14.6;43.7
68873;BME280;55907;50.806;12.882;2024-02-21T13:26:58;973.3;;;14.3;44.5
68873;BME280;55907;50.806;12.882;2024-02-21T13:29:59;973.2;;;14.1;44.9
68873;BME280;55907;50.806;12.882;2024-02-21T13:33:00;973.1;;;14.2;45.1
68873;BME280;55907;50.806;12.882;2024-02-21T13:36:00;973.1;;;14.2;45.4
68873;BME280;55907;50.806;12.882;2024-02-21T13:39:01;973.0;;;14.3;45.6
68873;BME280;55907;50.806;12.882;2024-02-21T13:42:02;973.0;;;14.2;44.9
68873;BME280;55907;50.806;12.882;2024-02-21T13:45:03;972.9;;;14.1;45.1
68873;BME280;55907;50.806;12.882;2024-02-21T13:48:04;972.9;;;14.3;44.9
68873;BME280;55907;50.806;12.882;2024-02-21T13:51:04;972.8;;;14.2;44.2
68873;BME280;55907;50.806;12.882;2024-02-21T13:54:05;972.8;;;14.2;45.1
68873;BME280;55907;50.806;12.882;2024-02-21T13:57:05;972.8;;;14.0;45.5
68873;BME280;55907;50.806;12.882;2024-02-21T14:00:06;972.8;;;14.0;45.5
68873;BME280;55907;50.806;12.882;2024-02-21T14:03:06;972.8;;;13.9;45.8
68873;BME280;55907;50.806;12.882;2024-02-21T14:06:07;972.8;;;13.9;45.3
68873;BME280;55907;50.806;12.882;2024-02-21T14:09:08;972.7;;;13.9;46.0
68873;BME280;55907;50.806;12.882;2024-02-21T14:12:08;972.7;;;13.9;45.2
68873;BME280;55907;50.806;12.882;2024-02-21T14:15:09;972.7;;;13.8;44.4
68873;BME280;55907;50.806;12.882;2024-02-21T14:18:10;972.7;;;13.7;45.0
68873;BME280;55907;50.806;12.882;2024-02-21T14:21:11;972.7;;;13.6;45.5
68873;BME280;55907;50.806;12.882;2024-02-21T14:24:11;972.7;;;13.8;45.4
68873;BME280;55907;50.806;12.882;2024-02-21T14:27:12;972.7;;;13.5;45.6
68873;BME280;55907;50.806;12.882;2024-02-21T14:30:13;972.6;;;13.6;46.2
68873;BME280;55907;50.806;12.882;2024-02-21T14:33:13;972.5;;;13.6;45.2
68873;BME280;55907;50.806;12.882;2024-02-21T14:36:14;972.5;;;13.8;45.5
68873;BME280;55907;50.806;12.882;2024-02-21T14:39:15;972.5;;;13.6;45.2
68873;BME280;55907;50.806;12.882;2024-02-21T14:42:16;972.5;;;13.5;45.9
68873;BME280;55907;50.806;12.882;2024-02-21T14:45:16;972.5;;;13.3;46.0
68873;BME280;55907;50.806;12.882;2024-02-21T14:48:17;972.5;;;13.3;46.5
68873;BME280;55907;50.806;12.882;2024-02-21T14:51:18;972.4;;;13.3;46.5
68873;BME280;55907;50.806;12.882;2024-02-21T14:54:19;972.5;;;13.3;46.8
68873;BME280;55907;50.806;12.882;2024-02-21T14:57:19;972.5;;;13.0;46.9
68873;BME280;55907;50.806;12.882;2024-02-21T15:00:20;972.4;;;12.9;47.5
68873;BME280;55907;50.806;12.882;2024-02-21T15:03:20;972.4;;;12.7;48.6
68873;BME280;55907;50.806;12.882;2024-02-21T15:06:21;972.4;;;12.6;49.2
68873;BME280;55907;50.806;12.882;2024-02-21T15:12:23;972.3;;;12.5;49.1
68873;BME280;55907;50.806;12.882;2024-02-21T15:15:23;972.3;;;12.3;49.0
68873;BME280;55907;50.806;12.882;2024-02-21T15:18:24;972.1;;;12.2;49.4
68873;BME280;55907;50.806;12.882;2024-02-21T15:21:25;972.1;;;11.9;49.7
68873;BME280;55907;50.806;12.882;2024-02-21T15:24:25;972.0;;;11.8;49.7
68873;BME280;55907;50.806;12.882;2024-02-21T15:27:26;971.9;;;11.7;49.7
68873;BME280;55907;50.806;12.882;2024-02-21T15:30:27;971.9;;;11.6;50.1
68873;BME280;55907;50.806;12.882;2024-02-21T15:33:28;971.7;;;11.5;50.1
68873;BME280;55907;50.806;12.882;2024-02-21T15:36:28;971.7;;;11.4;49.8
68873;BME280;55907;50.806;12.882;2024-02-21T15:39:29;971.6;;;11.4;49.6
68873;BME280;55907;50.806;12.882;2024-02-21T15:42:30;971.6;;;11.4;49.7
68873;BME280;55907;50.806;12.882;2024-02-21T15:45:30;971.6;;;11.2;50.1
68873;BME280;55907;50.806;12.882;2024-02-21T15:48:31;971.5;;;11.2;50.5
68873;BME280;55907;50.806;12.882;2024-02-21T15:51:32;971.5;;;11.2;50.7
68873;BME280;55907;50.806;12.882;2024-02-21T15:54:33;971.4;;;11.2;50.7
68873;BME280;55907;50.806;12.882;2024-02-21T15:57:33;971.3;;;11.3;50.6
68873;BME280;55907;50.806;12.882;2024-02-21T16:00:34;971.3;;;11.2;51.0
68873;BME280;55907;50.806;12.882;2024-02-21T16:03:35;971.3;;;11.1;51.2
68873;BME280;55907;50.806;12.882;2024-02-21T16:06:35;971.2;;;11.1;51.4
68873;BME280;55907;50.806;12.882;2024-02-21T16:09:36;971.1;;;11.1;51.7
68873;BME280;55907;50.806;12.882;2024-02-21T16:12:37;971.1;;;11.0;51.8
68873;BME280;55907;50.806;12.882;2024-02-21T16:18:38;971.0;;;10.9;52.3
68873;BME280;55907;50.806;12.882;2024-02-21T16:21:39;970.9;;;10.9;52.0
68873;BME280;55907;50.806;12.882;2024-02-21T16:24:40;970.9;;;10.8;52.7
68873;BME280;55907;50.806;12.882;2024-02-21T16:27:41;970.8;;;10.8;52.6
68873;BME280;55907;50.806;12.882;2024-02-21T16:30:41;970.7;;;10.7;53.0
68873;BME280;55907;50.806;12.882;2024-02-21T16:33:42;970.7;;;10.7;53.4
68873;BME280;55907;50.806;12.882;2024-02-21T16:36:43;970.7;;;10.6;53.1
68873;BME280;55907;50.806;12.882;2024-02-21T16:39:43;970.7;;;10.5;53.5
68873;BME280;55907;50.806;12.882;2024-02-21T16:42:44;970.6;;;10.5;53.6
68873;BME280;55907;50.806;12.882;2024-02-21T16:45:45;970.6;;;10.4;53.7
68873;BME280;55907;50.806;12.882;2024-02-21T16:48:46;970.5;;;10.4;53.8
68873;BME280;55907;50.806;12.882;2024-02-21T16:51:46;970.4;;;10.3;54.4
68873;BME280;55907;50.806;12.882;2024-02-21T16:54:47;970.4;;;10.2;54.5
68873;BME280;55907;50.806;12.882;2024-02-21T17:00:48;970.3;;;10.1;54.4
68873;BME280;55907;50.806;12.882;2024-02-21T17:03:49;970.3;;;10.1;53.6
68873;BME280;55907;50.806;12.882;2024-02-21T17:06:50;970.3;;;10.1;53.1
68873;BME280;55907;50.806;12.882;2024-02-21T17:12:51;970.3;;;10.0;54.0
68873;BME280;55907;50.806;12.882;2024-02-21T17:15:52;970.3;;;10.0;54.2